Time;durP1;ratioP1;P1;durP2;ratioP2;P2;SDS_P1;SDS_P2;PMS_P1;PMS_P2;Temp;Humidity;BMP_temperature;BMP_pressure;BME280_temperature;BME280_humidity;BME280_pressure;Samples;Min_cycle;Max_cycle;Signal;HPM_P1;HPM_P2
2024/04/12 00:01:03;;;;;;;4.65;2.15;;;;;;;5.64;100.00;98839.38;5406827;26;20004;-61
2024/04/12 00:03:31;;;;;;;7.43;2.97;;;;;;;5.54;100.00;98839.63;5418160;26;20016;-60
2024/04/12 00:06:15;;;;;;;8.68;2.80;;;;;;;5.46;100.00;98840.56;5434548;26;20372;-61
2024/04/12 00:08:47;;;;;;;6.78;3.17;;;;;;;5.41;100.00;98834.88;5373157;26;20008;-61
2024/04/12 00:11:20;;;;;;;6.05;2.88;;;;;;;5.30;100.00;98834.31;5350449;26;20736;-61
2024/04/12 00:13:52;;;;;;;5.60;2.72;;;;;;;5.30;100.00;98828.94;5347737;26;20040;-61
2024/04/12 00:16:23;;;;;;;5.57;2.72;;;;;;;5.15;100.00;98822.69;5373003;26;20044;-62
2024/04/12 00:19:02;;;;;;;;;;;;;;;5.12;100.00;98831.94;5364991;26;20007;-61
2024/04/12 00:21:29;;;;;;;6.32;3.03;;;;;;;5.09;100.00;98826.94;5365188;26;19957;-61
2024/04/12 00:23:59;;;;;;;5.38;2.90;;;;;;;5.08;100.00;98827.94;5362424;26;20007;-61
2024/04/12 00:26:29;;;;;;;6.85;3.28;;;;;;;5.15;100.00;98828.88;5363055;26;20008;-62
2024/04/12 00:28:58;;;;;;;6.35;3.13;;;;;;;5.13;100.00;98828.25;5366668;26;20007;-61
2024/04/12 00:31:26;;;;;;;7.20;3.85;;;;;;;5.03;100.00;98820.44;5375215;26;20019;-61
2024/04/12 00:33:55;;;;;;;7.10;3.30;;;;;;;5.12;100.00;98823.88;5376458;26;20036;-61
2024/04/12 00:36:24;;;;;;;9.23;3.40;;;;;;;5.00;100.00;98828.84;5368654;26;20011;-61
2024/04/12 00:38:55;;;;;;;7.05;3.70;;;;;;;4.99;100.00;98829.88;5348137;26;20019;-61
2024/04/12 00:41:24;;;;;;;8.50;3.10;;;;;;;5.02;100.00;98826.81;5355150;26;20011;-61
2024/04/12 00:43:53;;;;;;;10.10;3.10;;;;;;;5.05;100.00;98823.75;5366712;26;20011;-62
2024/04/12 00:46:24;;;;;;;7.00;2.83;;;;;;;4.92;100.00;98816.31;5386539;26;20007;-61
2024/04/12 00:49:06;;;;;;;5.75;2.83;;;;;;;4.86;100.00;98821.59;5369875;26;20026;-61
2024/04/12 00:51:33;;;;;;;4.68;2.80;;;;;;;4.81;100.00;98819.41;5360182;26;20043;-61
2024/04/12 00:54:02;;;;;;;6.38;3.30;;;;;;;4.80;100.00;98823.13;5363123;26;20033;-61
2024/04/12 00:56:29;;;;;;;7.57;3.47;;;;;;;4.79;100.00;98819.59;5373354;26;20000;-61
2024/04/12 00:58:59;;;;;;;6.32;3.45;;;;;;;4.91;100.00;98825.38;5375226;26;20330;-61
2024/04/12 01:01:26;;;;;;;7.82;3.60;;;;;;;5.05;100.00;98821.06;5387975;26;20000;-61
2024/04/12 01:03:54;;;;;;;6.95;3.38;;;;;;;5.15;100.00;98809.25;5379516;26;20000;-61
2024/04/12 01:06:24;;;;;;;5.85;2.92;;;;;;;5.30;100.00;98812.81;5370134;26;20192;-61
2024/04/12 01:08:54;;;;;;;8.32;3.28;;;;;;;5.30;100.00;98825.41;5360004;26;20008;-62
2024/04/12 01:11:22;;;;;;;9.00;3.45;;;;;;;5.25;100.00;98825.13;5372754;26;20016;-62
2024/04/12 01:13:49;;;;;;;8.30;3.72;;;;;;;5.14;100.00;98824.53;5381377;26;20560;-61
2024/04/12 01:16:16;;;;;;;4.63;2.65;;;;;;;5.14;100.00;98824.53;5372295;26;20004;-61
2024/04/12 01:18:43;;;;;;;6.72;3.35;;;;;;;5.24;100.00;98824.31;5331451;26;20084;-61
2024/04/12 01:21:10;;;;;;;9.02;2.70;;;;;;;5.24;100.00;98829.66;5333515;26;20004;-61
2024/04/12 01:23:44;;;;;;;6.13;2.97;;;;;;;5.27;100.00;98823.09;5348156;26;20122;-62
2024/04/12 01:26:13;;;;;;;5.90;3.10;;;;;;;5.04;100.00;98823.94;5343575;26;20452;-61
2024/04/12 01:28:44;;;;;;;8.95;3.80;;;;;;;4.98;100.00;98819.31;5339380;26;20012;-61
2024/04/12 01:31:15;;;;;;;5.38;3.10;;;;;;;4.97;100.00;98821.13;5321428;26;20001;-61
2024/04/12 01:33:43;;;;;;;8.50;3.53;;;;;;;5.01;100.00;98819.78;5349269;26;20020;-61
2024/04/12 01:36:13;;;;;;;7.75;3.63;;;;;;;4.98;100.00;98812.09;5336735;26;20285;-61
2024/04/12 01:38:39;;;;;;;6.80;3.00;;;;;;;4.96;100.00;98806.06;5352895;26;19997;-61
2024/04/12 01:41:08;;;;;;;7.18;3.13;;;;;;;5.00;100.00;98812.75;5355850;26;20027;-62
2024/04/12 01:43:38;;;;;;;6.78;3.20;;;;;;;5.02;100.00;98818.75;5340595;26;20000;-61
2024/04/12 01:46:07;;;;;;;5.43;3.13;;;;;;;5.14;100.00;98816.50;5345764;26;20004;-60
2024/04/12 01:48:35;;;;;;;7.07;2.65;;;;;;;5.17;100.00;98817.97;5358080;26;20817;-61
2024/04/12 01:51:03;;;;;;;7.88;3.42;;;;;;;5.18;100.00;98814.25;5339099;26;20333;-61
2024/04/12 01:53:37;;;;;;;6.30;3.03;;;;;;;5.11;100.00;98811.47;5349392;26;20348;-61
2024/04/12 01:56:04;;;;;;;5.93;3.53;;;;;;;5.01;100.00;98818.94;5339911;26;20023;-61
2024/04/12 01:58:34;;;;;;;6.72;3.55;;;;;;;4.95;100.00;98813.25;5355719;26;20028;-61
2024/04/12 02:01:02;;;;;;;7.05;3.40;;;;;;;4.90;100.00;98815.66;5363984;26;20024;-61
2024/04/12 02:03:30;;;;;;;5.80;3.33;;;;;;;4.81;100.00;98814.06;5359802;26;20341;-61
2024/04/12 02:06:04;;;;;;;6.55;2.47;;;;;;;4.91;100.00;98814.63;5364029;26;20091;-61
2024/04/12 02:08:32;;;;;;;6.13;2.67;;;;;;;4.97;100.00;98821.13;5347808;26;20008;-62
2024/04/12 02:11:05;;;;;;;8.00;3.00;;;;;;;4.90;100.00;98818.34;5355783;26;20023;-61
2024/04/12 02:13:36;;;;;;;4.57;2.50;;;;;;;4.98;100.00;98819.31;5341893;26;20009;-61
2024/04/12 02:16:05;;;;;;;9.82;3.65;;;;;;;5.06;100.00;98816.56;5352211;26;20036;-61
2024/04/12 02:18:33;;;;;;;6.28;3.08;;;;;;;5.05;100.00;98814.91;5366989;26;20075;-61
2024/04/12 02:21:05;;;;;;;5.35;2.80;;;;;;;5.07;100.00;98818.22;5360772;26;20074;-61
2024/04/12 02:23:37;;;;;;;;;;;;;;;4.94;100.00;98816.16;5355768;26;20001;-61
2024/04/12 02:26:05;;;;;;;6.20;2.75;;;;;;;4.86;100.00;98817.03;5354028;26;19933;-61
2024/04/12 02:28:36;;;;;;;6.68;3.22;;;;;;;4.83;100.00;98822.75;5337253;26;20413;-61
2024/04/12 02:31:08;;;;;;;6.53;3.17;;;;;;;4.65;100.00;98815.00;5361889;26;20020;-61
2024/04/12 02:33:35;;;;;;;8.63;3.20;;;;;;;4.59;100.00;98816.53;5350490;26;20001;-61
2024/04/12 02:36:11;;;;;;;7.50;2.80;;;;;;;4.62;100.00;98810.00;5349554;26;20009;-61
2024/04/12 02:38:39;;;;;;;6.15;3.10;;;;;;;4.63;100.00;98806.28;5343850;26;20107;-62
2024/04/12 02:41:07;;;;;;;10.20;4.32;;;;;;;4.51;100.00;98812.09;5342608;26;20009;-61
2024/04/12 02:43:35;;;;;;;6.35;3.63;;;;;;;4.43;100.00;98806.75;5335407;26;20012;-61
2024/04/12 02:46:02;;;;;;;7.45;3.03;;;;;;;4.36;100.00;98816.50;5350006;26;20009;-61
2024/04/12 02:48:29;;;;;;;4.75;2.67;;;;;;;4.47;100.00;98813.44;5347181;26;20713;-61
2024/04/12 02:51:03;;;;;;;7.40;2.85;;;;;;;4.63;100.00;98817.88;5325120;26;20366;-61
2024/04/12 02:53:30;;;;;;;6.97;2.30;;;;;;;4.66;100.00;98806.78;5343133;26;20016;-61
2024/04/12 02:56:02;;;;;;;6.40;2.42;;;;;;;4.63;100.00;98806.28;5353961;26;20558;-61
2024/04/12 02:58:38;;;;;;;5.57;2.53;;;;;;;4.62;100.00;98805.47;5355963;26;20004;-61
2024/04/12 03:01:13;;;;;;;6.38;2.35;;;;;;;4.66;100.00;98812.16;5340220;26;20000;-61
2024/04/12 03:03:45;;;;;;;6.68;2.40;;;;;;;4.64;100.00;98813.34;5345052;26;20008;-61
2024/04/12 03:06:17;;;;;;;8.45;2.72;;;;;;;4.57;100.00;98815.88;5339499;26;20768;-61
2024/04/12 03:08:47;;;;;;;8.70;2.40;;;;;;;4.55;100.00;98815.22;5360805;26;20004;-61
2024/04/12 03:11:22;;;;;;;7.25;2.53;;;;;;;4.51;100.00;98812.09;5347434;26;20005;-61
2024/04/12 03:13:52;;;;;;;4.28;2.03;;;;;;;4.54;100.00;98814.38;5337636;26;20001;-62
2024/04/12 03:16:20;;;;;;;5.78;2.28;;;;;;;4.46;100.00;98817.13;5348887;26;20001;-61
2024/04/12 03:18:54;;;;;;;4.72;2.33;;;;;;;4.39;100.00;98824.22;5357473;26;20501;-61
2024/04/12 03:21:22;;;;;;;5.18;2.42;;;;;;;4.36;100.00;98822.72;5340760;26;20016;-61
2024/04/12 03:23:50;;;;;;;5.45;2.10;;;;;;;4.38;100.00;98819.84;5345373;26;20004;-62
2024/04/12 03:26:23;;;;;;;9.52;2.72;;;;;;;4.55;100.00;98825.97;5366660;26;20004;-61
2024/04/12 03:28:59;;;;;;;4.47;2.08;;;;;;;4.62;100.00;98826.94;5342858;26;20016;-62
2024/04/12 03:31:26;;;;;;;5.82;2.50;;;;;;;4.69;100.00;98827.06;5352061;26;20009;-61
2024/04/12 03:33:55;;;;;;;4.97;2.10;;;;;;;4.71;100.00;98826.88;5345513;26;20012;-61
2024/04/12 03:36:26;;;;;;;5.35;2.40;;;;;;;4.78;100.00;98820.63;5356355;26;20012;-61
2024/04/12 03:39:24;;;;;;;6.68;2.03;;;;;;;4.80;100.00;98823.94;5358055;26;20020;-62
2024/04/12 03:42:04;;;;;;;8.60;2.55;;;;;;;4.97;100.00;98823.81;5344287;26;20032;-61
2024/04/12 03:44:34;;;;;;;5.28;2.00;;;;;;;5.01;100.00;98830.50;5346240;26;20091;-61
2024/04/12 03:47:07;;;;;;;6.00;2.67;;;;;;;5.05;100.00;98828.31;5351988;26;20033;-61
2024/04/12 03:49:39;;;;;;;3.55;1.90;;;;;;;5.06;100.00;98825.44;5341470;26;20001;-61
2024/04/12 03:52:13;;;;;;;8.73;2.50;;;;;;;5.08;100.00;98825.25;5337951;26;20009;-61
2024/04/12 03:54:45;;;;;;;6.32;1.90;;;;;;;5.05;100.00;98826.44;5346963;26;20012;-61
2024/04/12 03:57:12;;;;;;;7.57;2.50;;;;;;;4.99;100.00;98827.19;5343343;26;20061;-62
2024/04/12 03:59:43;;;;;;;5.82;2.17;;;;;;;4.93;100.00;98827.88;5335147;26;20017;-61
2024/04/12 04:02:13;;;;;;;12.02;2.85;;;;;;;4.96;100.00;98824.84;5325067;26;20025;-62
2024/04/12 04:04:45;;;;;;;5.72;1.98;;;;;;;4.93;100.00;98830.56;5338730;26;20052;-61
2024/04/12 04:07:16;;;;;;;6.53;1.88;;;;;;;4.93;100.00;98820.69;5345244;26;20037;-61
2024/04/12 04:09:46;;;;;;;6.20;2.20;;;;;;;4.88;100.00;98817.69;5348408;26;20016;-61
2024/04/12 04:12:14;;;;;;;6.28;2.55;;;;;;;4.91;100.00;98811.94;5346252;26;20038;-61
2024/04/12 04:14:48;;;;;;;7.07;2.53;;;;;;;4.94;100.00;98810.78;5332781;26;20012;-61
2024/04/12 04:17:18;;;;;;;3.53;2.15;;;;;;;4.95;100.00;98815.13;5348944;26;20023;-61
2024/04/12 04:19:45;;;;;;;6.93;2.78;;;;;;;4.87;100.00;98810.63;5349690;26;20045;-61
2024/04/12 04:24:57;;;;;;;4.68;2.30;;;;;;;4.82;100.00;98811.19;5339064;26;20433;-61
2024/04/12 04:27:24;;;;;;;5.65;2.20;;;;;;;4.84;100.00;98810.16;5342304;26;20019;-61
2024/04/12 04:29:55;;;;;;;8.10;2.70;;;;;;;4.78;100.00;98807.19;5322747;26;20005;-61
2024/04/12 04:32:23;;;;;;;5.93;2.37;;;;;;;4.86;100.00;98813.53;5331324;26;20016;-61
2024/04/12 04:35:05;;;;;;;4.22;2.25;;;;;;;4.87;100.00;98807.13;5336557;26;20410;-61
2024/04/12 04:37:39;;;;;;;6.35;2.13;;;;;;;4.85;100.00;98807.31;5335951;26;20259;-61
2024/04/12 04:40:11;;;;;;;6.70;2.55;;;;;;;4.90;100.00;98815.66;5347480;26;20000;-61
2024/04/12 04:42:39;;;;;;;5.93;2.58;;;;;;;4.85;100.00;98804.63;5331974;26;20005;-61
2024/04/12 04:45:07;;;;;;;5.72;2.70;;;;;;;4.77;100.00;98797.47;5322847;26;20004;-62
2024/04/12 04:47:40;;;;;;;7.03;2.63;;;;;;;4.92;100.00;98799.38;5322392;26;20063;-61
2024/04/12 04:50:10;;;;;;;6.40;2.33;;;;;;;5.00;100.00;98801.16;5366167;26;20040;-61
2024/04/12 04:52:37;;;;;;;7.00;2.50;;;;;;;4.96;100.00;98806.06;5345351;26;20012;-61
2024/04/12 04:55:12;;;;;;;7.35;2.97;;;;;;;4.98;100.00;98806.72;5350764;26;20020;-61
2024/04/12 04:57:47;;;;;;;4.30;2.65;;;;;;;5.02;100.00;98801.81;5328438;26;20001;-61
2024/04/12 05:00:24;;;;;;;8.50;2.60;;;;;;;5.14;100.00;98805.75;5338119;26;20014;-61
2024/04/12 05:02:53;;;;;;;6.55;2.47;;;;;;;5.29;100.00;98816.53;5341475;26;20001;-62
2024/04/12 05:05:27;;;;;;;5.43;2.63;;;;;;;5.40;100.00;98812.56;5351649;26;20025;-61
2024/04/12 05:07:56;;;;;;;8.55;2.78;;;;;;;5.44;100.00;98816.56;5351141;26;20031;-62
2024/04/12 05:10:24;;;;;;;6.25;2.25;;;;;;;5.47;100.00;98818.03;5357459;26;20004;-61
2024/04/12 05:12:53;;;;;;;8.18;2.53;;;;;;;5.36;100.00;98816.63;5352328;26;20058;-61
2024/04/12 05:18:08;;;;;;;8.05;2.40;;;;;;;5.55;100.00;98817.97;5369617;26;20004;-61
2024/04/12 05:20:40;;;;;;;6.47;2.40;;;;;;;5.67;100.00;98814.78;5351559;26;20004;-62
2024/04/12 05:23:15;;;;;;;5.65;2.50;;;;;;;5.76;100.00;98821.78;5337853;26;20055;-62
2024/04/12 05:25:43;;;;;;;5.35;2.63;;;;;;;5.91;100.00;98821.78;5341754;26;20019;-62
2024/04/12 05:28:12;;;;;;;6.25;2.63;;;;;;;5.96;100.00;98818.50;5339990;26;20001;-61
2024/04/12 05:30:42;;;;;;;6.05;2.35;;;;;;;6.05;100.00;98824.69;5352830;26;20047;-61
2024/04/12 05:33:10;;;;;;;6.70;2.45;;;;;;;6.03;100.00;98821.28;5342240;26;20020;-62
2024/04/12 05:35:37;;;;;;;8.13;3.13;;;;;;;6.02;100.00;98820.47;5358733;26;20016;-61
2024/04/12 05:38:07;;;;;;;4.55;2.33;;;;;;;6.01;100.00;98821.47;5356794;26;20055;-61
2024/04/12 05:40:41;;;;;;;7.18;2.70;;;;;;;5.94;100.00;98815.19;5359703;26;20008;-61
2024/04/12 05:43:14;;;;;;;7.20;3.25;;;;;;;5.94;100.00;98812.50;5351019;26;20001;-60
2024/04/12 05:45:47;;;;;;;6.25;2.20;;;;;;;6.02;100.00;98800.81;5340587;26;22357;-60
2024/04/12 05:48:14;;;;;;;5.30;2.50;;;;;;;6.11;100.00;98814.00;5341862;26;20008;-60
2024/04/12 05:50:48;;;;;;;6.07;2.53;;;;;;;6.27;100.00;98822.91;5356088;26;20749;-60
2024/04/12 05:53:16;;;;;;;6.88;2.80;;;;;;;6.42;100.00;98822.03;5336018;26;20068;-59
2024/04/12 05:55:44;;;;;;;10.70;3.03;;;;;;;6.56;100.00;98815.75;5320917;26;20009;-60
2024/04/12 05:58:12;;;;;;;8.02;2.65;;;;;;;6.60;100.00;98827.81;5345366;26;20034;-60
2024/04/12 06:00:42;;;;;;;6.72;2.88;;;;;;;6.62;100.00;98816.84;5340907;26;20039;-60
2024/04/12 06:03:25;;;;;;;6.00;2.72;;;;;;;6.80;100.00;98835.28;5345676;26;20048;-60
2024/04/12 06:05:55;;;;;;;6.82;3.00;;;;;;;6.88;100.00;98834.31;5326195;26;20005;-61
2024/04/12 06:08:23;;;;;;;5.00;2.22;;;;;;;6.96;100.00;98841.44;5354244;26;20048;-59
2024/04/12 06:10:50;;;;;;;6.75;2.50;;;;;;;7.03;100.00;98840.47;5344379;26;20033;-60
2024/04/12 06:13:20;;;;;;;4.50;2.47;;;;;;;7.10;100.00;98839.69;5345489;26;20495;-60
2024/04/12 06:15:48;;;;;;;6.75;2.50;;;;;;;7.20;100.00;98836.69;5354988;26;20037;-61
2024/04/12 06:18:16;;;;;;;6.88;3.15;;;;;;;7.24;100.00;98846.03;5342708;26;20012;-61
2024/04/12 06:20:43;;;;;;;5.68;2.30;;;;;;;7.32;100.00;98854.00;5344156;26;20316;-61
2024/04/12 06:23:11;;;;;;;5.15;2.47;;;;;;;7.44;100.00;98856.16;5349676;26;20020;-60
2024/04/12 06:25:45;;;;;;;5.95;2.20;;;;;;;7.53;100.00;98861.19;5357573;26;20328;-61
2024/04/12 06:28:13;;;;;;;7.32;2.60;;;;;;;7.67;100.00;98861.34;5341291;26;20015;-61
2024/04/12 06:30:46;;;;;;;4.60;2.30;;;;;;;7.79;100.00;98859.75;5340378;26;20015;-61
2024/04/12 06:33:25;;;;;;;5.63;2.22;;;;;;;7.91;100.00;98861.88;5339258;26;20028;-60
2024/04/12 06:36:11;;;;;;;6.05;2.42;;;;;;;8.07;100.00;98863.44;5346740;26;19996;-60
2024/04/12 06:38:39;;;;;;;5.43;2.20;;;;;;;8.31;100.00;98858.59;5345502;26;20008;-60
2024/04/12 06:41:10;;;;;;;4.90;2.10;;;;;;;8.48;100.00;98863.66;5361594;26;20004;-59
2024/04/12 06:43:37;;;;;;;5.47;2.47;;;;;;;8.62;100.00;98865.38;5348810;26;20023;-61
2024/04/12 06:46:13;;;;;;;5.00;2.05;;;;;;;8.74;100.00;98859.41;5338027;26;20170;-60
2024/04/12 06:48:41;;;;;;;8.48;2.90;;;;;;;8.95;100.00;98855.69;5360438;26;20149;-61
2024/04/12 06:51:12;;;;;;;7.40;2.10;;;;;;;9.11;99.43;98852.63;5353279;26;20013;-59
2024/04/12 06:53:44;;;;;;;5.72;2.08;;;;;;;9.24;99.44;98851.81;5338460;26;20000;-60
2024/04/12 06:56:20;;;;;;;7.28;2.22;;;;;;;9.44;96.75;98842.03;5338125;26;20008;-59
2024/04/12 06:58:46;;;;;;;7.05;2.60;;;;;;;9.63;95.16;98848.50;5365367;26;20015;-61
2024/04/12 07:01:15;;;;;;;7.53;2.50;;;;;;;9.80;95.93;98851.56;5336369;26;20009;-61
2024/04/12 07:03:45;;;;;;;11.80;3.00;;;;;;;9.96;92.80;98847.63;5339102;26;20349;-60
2024/04/12 07:06:18;;;;;;;6.90;2.30;;;;;;;10.12;92.93;98846.31;5358054;26;20415;-60
2024/04/12 07:08:49;;;;;;;6.82;2.00;;;;;;;10.27;92.41;98846.06;5347113;26;20188;-60
2024/04/12 07:11:18;;;;;;;5.60;1.92;;;;;;;10.39;91.37;98843.50;5332367;26;20022;-60
2024/04/12 07:13:52;;;;;;;7.63;2.10;;;;;;;10.41;90.83;98837.88;5339098;26;20048;-60
2024/04/12 07:16:20;;;;;;;4.25;1.85;;;;;;;10.50;90.16;98841.19;5325905;26;20083;-61
2024/04/12 07:18:47;;;;;;;4.45;1.77;;;;;;;10.58;90.98;98851.78;5347799;26;20015;-61
2024/04/12 07:21:16;;;;;;;11.00;1.98;;;;;;;10.63;89.40;98857.41;5334159;26;20009;-61
2024/04/12 07:23:49;;;;;;;8.85;1.92;;;;;;;10.76;87.80;98866.53;5331006;26;20024;-60
2024/04/12 07:26:27;;;;;;;5.97;1.65;;;;;;;10.86;85.96;98872.28;5334363;26;20539;-60
2024/04/12 07:29:00;;;;;;;4.65;1.85;;;;;;;11.00;84.41;98867.63;5341685;26;20001;-61
2024/04/12 07:31:34;;;;;;;4.00;1.60;;;;;;;11.14;85.19;98857.53;5339820;26;20001;-61
2024/04/12 07:34:05;;;;;;;7.85;1.90;;;;;;;11.28;83.66;98855.56;5344037;26;20016;-60
2024/04/12 07:36:32;;;;;;;5.97;1.70;;;;;;;11.45;82.76;98865.84;5339563;26;20005;-62
2024/04/12 07:39:05;;;;;;;5.97;2.00;;;;;;;11.57;81.25;98846.97;5342461;26;20005;-62
2024/04/12 07:41:34;;;;;;;6.82;2.10;;;;;;;11.79;81.93;98860.16;5338426;26;20000;-61
2024/04/12 07:44:04;;;;;;;5.88;2.10;;;;;;;11.98;81.04;98855.59;5341524;26;20009;-61
2024/04/12 07:46:35;;;;;;;6.70;2.60;;;;;;;12.07;76.87;98867.00;5340094;26;20001;-62
2024/04/12 07:49:07;;;;;;;5.45;2.33;;;;;;;12.15;76.03;98860.44;5341559;26;20016;-61
2024/04/12 07:51:39;;;;;;;8.55;2.42;;;;;;;12.33;74.16;98852.31;5340902;26;20008;-62
2024/04/12 07:54:11;;;;;;;6.75;2.28;;;;;;;12.44;74.01;98849.88;5341187;26;20016;-61
2024/04/12 07:57:02;;;;;;;9.82;2.83;;;;;;;12.54;74.50;98852.06;5339457;26;20001;-60
2024/04/12 07:59:29;;;;;;;5.72;2.97;;;;;;;12.74;74.00;98854.50;5342256;26;20048;-62
2024/04/12 08:01:57;;;;;;;6.95;3.22;;;;;;;13.01;70.13;98843.25;5332449;26;20005;-61
2024/04/12 08:04:36;;;;;;;8.77;3.10;;;;;;;13.21;69.71;98840.25;5323932;26;20111;-60
2024/04/12 08:07:13;;;;;;;6.55;3.22;;;;;;;13.32;71.62;98838.63;5321343;26;20384;-61
2024/04/12 08:09:42;;;;;;;8.40;4.25;;;;;;;13.56;68.40;98838.69;5339422;26;20017;-61
2024/04/12 08:12:17;;;;;;;9.27;3.60;;;;;;;13.72;69.62;98836.31;5329352;26;20005;-61
2024/04/12 08:14:55;;;;;;;10.55;4.20;;;;;;;13.78;70.33;98832.66;5325209;26;20029;-61
2024/04/12 08:17:24;;;;;;;8.95;4.82;;;;;;;13.98;66.16;98829.59;5307621;26;20013;-61
2024/04/12 08:19:55;;;;;;;7.55;4.00;;;;;;;14.11;71.76;98839.38;5313960;26;20560;-60
2024/04/12 08:22:25;;;;;;;11.48;4.10;;;;;;;14.16;67.67;98838.66;5319267;26;20006;-61
2024/04/12 08:24:56;;;;;;;10.25;3.75;;;;;;;14.22;66.28;98831.44;5329031;26;20081;-61
2024/04/12 08:27:30;;;;;;;8.25;3.38;;;;;;;14.20;64.56;98833.56;5326415;26;20009;-60
2024/04/12 08:29:56;;;;;;;6.13;3.45;;;;;;;14.18;65.82;98840.09;5319866;26;20717;-60
2024/04/12 08:32:31;;;;;;;7.35;3.67;;;;;;;14.14;65.06;98838.91;5308526;26;20083;-61
2024/04/12 08:34:59;;;;;;;9.80;3.45;;;;;;;14.19;67.85;98835.44;5320659;26;20017;-62
2024/04/12 08:37:36;;;;;;;12.18;3.92;;;;;;;14.33;62.97;98844.19;5306419;26;20006;-61
2024/04/12 08:40:10;;;;;;;7.20;2.83;;;;;;;14.39;64.83;98834.22;5326625;26;20020;-61
2024/04/12 08:42:38;;;;;;;8.30;3.92;;;;;;;14.44;63.03;98843.34;5323747;26;20012;-61
2024/04/12 08:45:17;;;;;;;7.82;4.03;;;;;;;14.48;63.38;98843.69;5323153;26;20435;-62
2024/04/12 08:48:01;;;;;;;8.15;3.83;;;;;;;14.57;62.16;98852.31;5319319;26;20388;-61
2024/04/12 08:50:33;;;;;;;7.28;3.30;;;;;;;14.80;62.81;98854.16;5311129;26;20014;-61
2024/04/12 08:53:11;;;;;;;4.93;2.05;;;;;;;14.95;62.37;98852.78;5313986;26;20006;-62
2024/04/12 08:55:42;;;;;;;6.00;2.03;;;;;;;15.02;64.25;98842.56;5313726;26;20013;-60
2024/04/12 08:58:10;;;;;;;7.10;2.50;;;;;;;15.14;62.89;98844.41;5318142;26;20001;-61
2024/04/12 09:00:39;;;;;;;7.75;2.35;;;;;;;15.17;61.72;98846.63;5330913;26;20004;-60
2024/04/12 09:03:24;;;;;;;7.20;2.85;;;;;;;15.18;61.95;98851.84;5321336;26;20793;-61
2024/04/12 09:05:55;;;;;;;4.82;2.67;;;;;;;15.26;60.96;98849.78;5324673;26;20729;-61
2024/04/12 09:08:28;;;;;;;5.80;2.30;;;;;;;15.20;61.40;98848.88;5332538;26;20013;-61
2024/04/12 09:11:05;;;;;;;6.70;2.55;;;;;;;15.25;61.05;98848.16;5323901;26;20395;-62
2024/04/12 09:13:36;;;;;;;6.00;2.53;;;;;;;15.26;60.72;98852.53;5339796;26;20008;-61
2024/04/12 09:16:06;;;;;;;6.53;2.05;;;;;;;15.17;59.85;98857.53;5336138;26;20354;-62
2024/04/12 09:18:44;;;;;;;7.90;2.70;;;;;;;15.30;60.04;98851.75;5337930;26;20001;-60
2024/04/12 09:21:24;;;;;;;7.30;2.33;;;;;;;15.31;62.31;98856.16;5347166;26;20000;-61
2024/04/12 09:23:51;;;;;;;6.65;2.15;;;;;;;15.41;61.12;98857.41;5335536;26;20431;-61
2024/04/12 09:26:24;;;;;;;5.90;2.70;;;;;;;15.41;60.54;98855.50;5333300;26;20005;-61
2024/04/12 09:29:01;;;;;;;4.32;2.00;;;;;;;15.42;61.60;98862.63;5335786;26;20076;-62
2024/04/12 09:34:29;;;;;;;5.00;1.90;;;;;;;15.55;60.75;98872.38;5344892;26;20294;-62
2024/04/12 09:37:02;;;;;;;8.00;2.20;;;;;;;15.59;60.45;98876.28;5339476;26;20001;-61
2024/04/12 09:40:04;;;;;;;6.38;2.22;;;;;;;15.59;59.48;98873.53;5334279;26;20083;-62
2024/04/12 09:45:21;;;;;;;7.38;2.63;;;;;;;15.87;57.54;98870.97;5349993;26;20473;-61
2024/04/12 10:39:00;;;;;;;7.95;2.45;;;;;;;18.18;47.50;98838.34;5350896;26;20021;-62
2024/04/12 10:41:35;;;;;;;9.77;2.60;;;;;;;18.41;47.49;98834.34;5328306;26;20067;-60
2024/04/12 10:44:03;;;;;;;5.80;2.30;;;;;;;18.27;47.78;98824.94;5324976;26;20090;-61
2024/04/12 10:46:33;;;;;;;7.95;3.15;;;;;;;18.30;47.85;98825.25;5335005;26;20019;-60
2024/04/12 10:49:00;;;;;;;7.45;2.92;;;;;;;18.26;47.59;98837.00;5338863;26;20047;-61
2024/04/12 10:51:28;;;;;;;4.55;2.15;;;;;;;18.24;47.68;98828.25;5336197;26;20020;-61
2024/04/12 10:53:56;;;;;;;9.20;2.47;;;;;;;18.32;47.68;98830.47;5324441;26;20447;-62
2024/04/12 10:56:25;;;;;;;7.70;2.33;;;;;;;18.31;48.27;98826.91;5335945;26;20005;-60
2024/04/12 10:58:56;;;;;;;6.80;1.73;;;;;;;18.14;47.65;98832.56;5340281;26;20458;-61
2024/04/12 11:01:23;;;;;;;7.35;1.98;;;;;;;18.13;46.92;98821.88;5336670;26;20040;-61
2024/04/12 11:03:56;;;;;;;7.55;2.40;;;;;;;18.01;46.15;98814.66;5331821;26;20005;-61
2024/04/12 11:06:31;;;;;;;6.75;2.58;;;;;;;18.10;47.38;98805.97;5323134;26;20388;-61
2024/04/12 11:09:05;;;;;;;7.15;2.15;;;;;;;18.16;48.07;98808.47;5328446;26;20016;-61
2024/04/12 11:11:38;;;;;;;8.77;2.20;;;;;;;18.19;45.71;98805.19;5326762;26;20062;-62
2024/04/12 11:14:15;;;;;;;5.95;2.38;;;;;;;18.19;46.12;98802.44;5323630;26;20016;-62
2024/04/12 11:33:39;;;;;;;4.63;1.88;;;;;;;18.35;46.50;98794.28;5331080;26;19926;-62
2024/04/12 11:36:19;;;;;;;4.55;1.75;;;;;;;18.46;46.09;98784.16;5320552;26;20452;-62
2024/04/12 11:38:48;;;;;;;7.18;2.63;;;;;;;18.58;45.95;98792.97;5332653;26;20012;-61
2024/04/12 11:41:15;;;;;;;7.57;2.70;;;;;;;18.50;45.23;98782.53;5335961;26;20013;-60
2024/04/12 11:43:45;;;;;;;6.10;2.03;;;;;;;18.42;46.29;98780.31;5343087;26;20001;-61
2024/04/12 11:46:16;;;;;;;4.32;1.92;;;;;;;18.41;46.10;98779.50;5336985;26;20009;-62
2024/04/12 11:48:43;;;;;;;6.50;2.53;;;;;;;18.55;45.70;98784.47;5329973;26;20086;-62
2024/04/12 11:51:10;;;;;;;7.13;2.88;;;;;;;18.59;46.38;98775.44;5342387;26;20015;-61
2024/04/12 11:53:37;;;;;;;8.02;2.25;;;;;;;18.70;46.78;98768.06;5337561;26;20012;-61
2024/04/12 11:56:04;;;;;;;6.63;1.88;;;;;;;18.67;46.20;98767.75;5343032;26;20009;-62
2024/04/12 11:58:31;;;;;;;5.75;2.42;;;;;;;18.73;45.67;98772.19;5344119;26;20016;-61
2024/04/12 12:00:59;;;;;;;5.57;1.80;;;;;;;18.75;46.13;98766.44;5342797;26;20020;-60
2024/04/12 12:03:25;;;;;;;4.47;1.90;;;;;;;18.77;45.98;98762.31;5346221;26;20001;-60
2024/04/12 12:05:53;;;;;;;7.88;2.10;;;;;;;18.80;45.38;98759.00;5329045;26;20000;-61
2024/04/12 12:08:32;;;;;;;7.32;2.30;;;;;;;18.76;44.55;98765.31;5338959;26;20024;-60
2024/04/12 12:11:05;;;;;;;4.38;2.00;;;;;;;18.54;45.41;98761.69;5341905;26;20005;-61
2024/04/12 12:13:32;;;;;;;5.10;2.33;;;;;;;18.62;45.30;98751.31;5338895;26;20012;-61
2024/04/12 12:15:59;;;;;;;5.43;1.98;;;;;;;18.74;45.26;98749.13;5340977;26;20013;-61
2024/04/12 12:18:29;;;;;;;10.35;2.20;;;;;;;18.87;46.09;98752.44;5327179;26;20005;-61
2024/04/12 12:20:56;;;;;;;6.90;1.87;;;;;;;19.12;44.39;98754.41;5321674;26;20092;-61
2024/04/12 12:23:24;;;;;;;6.80;1.70;;;;;;;19.10;45.04;98753.84;5330657;26;20690;-61
2024/04/12 12:25:52;;;;;;;5.78;1.88;;;;;;;19.09;45.86;98752.22;5338542;26;20016;-62
2024/04/12 12:28:19;;;;;;;6.88;1.90;;;;;;;19.29;45.00;98751.38;5326032;26;20061;-62
2024/04/12 12:30:54;;;;;;;4.90;1.80;;;;;;;19.43;44.75;98748.91;5342773;26;20391;-61
2024/04/12 12:33:23;;;;;;;4.05;1.80;;;;;;;19.49;43.53;98745.03;5336158;26;20009;-61
2024/04/12 12:35:54;;;;;;;5.15;1.85;;;;;;;19.60;44.11;98751.34;5343127;26;20016;-61
2024/04/12 12:38:21;;;;;;;7.95;1.80;;;;;;;19.70;43.78;98755.16;5343321;26;20048;-62
2024/04/12 12:40:47;;;;;;;5.07;1.98;;;;;;;19.54;43.77;98751.63;5336261;26;20072;-61
2024/04/12 12:43:15;;;;;;;4.47;1.90;;;;;;;19.37;44.47;98741.75;5340238;26;20068;-60
2024/04/12 12:45:41;;;;;;;8.52;1.90;;;;;;;19.66;45.10;98746.66;5337842;26;20007;-60
2024/04/12 12:48:19;;;;;;;4.72;1.75;;;;;;;19.83;43.61;98749.06;5338183;26;20056;-60
2024/04/12 12:50:47;;;;;;;5.78;1.98;;;;;;;19.98;43.46;98755.63;5324450;26;20044;-61
2024/04/12 12:53:15;;;;;;;7.65;2.85;;;;;;;19.88;43.53;98742.75;5333306;26;20016;-61
2024/04/12 12:55:41;;;;;;;6.30;1.80;;;;;;;20.07;43.58;98734.72;5338375;26;20966;-62
2024/04/12 12:58:11;;;;;;;4.63;1.65;;;;;;;20.20;42.96;98737.97;5322422;26;20469;-60
2024/04/12 13:00:44;;;;;;;7.60;2.08;;;;;;;20.30;43.38;98740.66;5331162;26;20016;-61
2024/04/12 13:03:12;;;;;;;5.45;1.95;;;;;;;20.13;42.79;98733.59;5330975;26;20001;-59
2024/04/12 13:05:39;;;;;;;7.43;2.90;;;;;;;20.23;43.20;98732.72;5330844;26;20001;-59
2024/04/12 13:08:06;;;;;;;5.47;1.95;;;;;;;20.30;42.80;98726.91;5332295;26;20016;-61
2024/04/12 13:10:33;;;;;;;7.25;2.30;;;;;;;20.51;42.49;98726.81;5332855;26;20012;-61